Time;durP1;ratioP1;P1;durP2;ratioP2;P2;SDS_P1;SDS_P2;PMS_P1;PMS_P2;Temp;Humidity;BMP_temperature;BMP_pressure;BME280_temperature;BME280_humidity;BME280_pressure;Samples;Min_cycle;Max_cycle;Signal;HPM_P1;HPM_P2
2022/07/13 00:00:26;;;;;;;4.70;2.40;;;24.10;99.90;;;;;;5053889;28;20052;-67
2022/07/13 00:02:53;;;;;;;4.43;2.63;;;24.10;99.90;;;;;;5054517;28;20150;-67
2022/07/13 00:05:21;;;;;;;4.55;2.60;;;24.10;99.90;;;;;;5053288;28;20041;-67
2022/07/13 00:07:48;;;;;;;4.40;2.45;;;24.10;99.90;;;;;;5052349;28;20045;-67
2022/07/13 00:10:15;;;;;;;5.32;2.70;;;24.10;99.90;;;;;;5053493;28;20045;-67
2022/07/13 00:12:41;;;;;;;4.38;2.33;;;24.00;99.90;;;;;;5054317;28;20059;-67
2022/07/13 00:15:09;;;;;;;3.67;2.17;;;24.00;99.90;;;;;;5052379;28;20051;-67
2022/07/13 00:17:36;;;;;;;4.65;2.60;;;24.00;99.90;;;;;;5053470;28;20049;-68
2022/07/13 00:20:03;;;;;;;3.58;2.40;;;24.00;99.90;;;;;;5035831;28;20059;-67
2022/07/13 00:22:31;;;;;;;5.53;2.42;;;23.90;99.90;;;;;;5051946;28;20048;-67
2022/07/13 00:24:58;;;;;;;4.25;2.45;;;23.90;99.90;;;;;;5053243;28;20045;-67
2022/07/13 00:27:25;;;;;;;3.72;2.35;;;23.90;99.90;;;;;;5053683;28;20059;-67
2022/07/13 00:29:51;;;;;;;4.10;2.83;;;23.90;99.90;;;;;;5053032;28;20064;-67
2022/07/13 00:32:18;;;;;;;5.07;2.63;;;23.90;99.90;;;;;;5053038;28;20492;-66
2022/07/13 00:34:45;;;;;;;5.55;2.72;;;23.90;99.90;;;;;;5052061;28;20500;-66
2022/07/13 00:37:12;;;;;;;3.92;2.78;;;23.90;99.90;;;;;;5053059;28;20136;-67
2022/07/13 00:39:39;;;;;;;4.30;2.17;;;23.90;99.90;;;;;;5054135;28;20053;-68
2022/07/13 00:42:06;;;;;;;4.15;2.92;;;23.80;99.90;;;;;;5053092;28;20045;-67
2022/07/13 00:44:33;;;;;;;5.20;2.97;;;23.80;99.90;;;;;;5053305;28;20048;-67
2022/07/13 00:47:00;;;;;;;5.90;2.72;;;23.70;99.90;;;;;;5053683;28;20044;-67
2022/07/13 00:49:27;;;;;;;4.63;2.90;;;23.60;99.90;;;;;;5051944;28;20054;-67
2022/07/13 00:51:54;;;;;;;4.20;3.17;;;23.60;99.90;;;;;;5052756;28;20040;-67
2022/07/13 00:54:28;;;;;;;6.13;2.60;;;23.60;99.90;;;;;;5052003;28;20496;-67
2022/07/13 00:56:58;;;;;;;7.28;3.10;;;23.50;99.90;;;;;;5052651;28;20041;-67
2022/07/13 00:59:25;;;;;;;3.67;2.78;;;23.50;99.90;;;;;;5052779;28;20040;-67
2022/07/13 01:01:53;;;;;;;4.68;2.90;;;23.40;99.90;;;;;;5052988;28;20469;-67
2022/07/13 01:04:21;;;;;;;5.28;2.67;;;23.40;99.90;;;;;;5051580;28;20045;-67
2022/07/13 01:06:48;;;;;;;5.13;2.90;;;23.40;99.90;;;;;;5053068;28;20056;-67
2022/07/13 01:09:15;;;;;;;3.95;2.40;;;23.40;99.90;;;;;;5052872;28;20520;-67
2022/07/13 01:11:42;;;;;;;4.00;2.80;;;23.40;99.90;;;;;;5051811;28;20502;-67
2022/07/13 01:14:09;;;;;;;4.47;2.65;;;23.40;99.90;;;;;;5051843;28;20037;-67
2022/07/13 01:16:36;;;;;;;4.32;2.60;;;23.30;99.90;;;;;;5052634;28;20049;-67
2022/07/13 01:19:03;;;;;;;6.25;2.70;;;23.30;99.90;;;;;;5051906;28;20115;-67
2022/07/13 01:21:31;;;;;;;6.13;3.95;;;23.30;99.90;;;;;;5052377;28;20041;-67
2022/07/13 01:23:58;;;;;;;5.40;3.15;;;23.30;99.90;;;;;;5054871;28;20041;-67
2022/07/13 01:26:25;;;;;;;5.60;3.03;;;23.30;99.90;;;;;;5055328;28;20048;-67
2022/07/13 01:28:53;;;;;;;4.60;2.95;;;23.30;99.90;;;;;;5056660;28;20041;-67
2022/07/13 01:31:37;;;;;;;2.92;2.45;;;23.20;99.90;;;;;;5056468;28;20358;-67
2022/07/13 01:34:05;;;;;;;4.43;3.42;;;23.20;99.90;;;;;;5055465;28;20399;-67
2022/07/13 01:36:35;;;;;;;4.30;2.85;;;23.20;99.90;;;;;;5056506;28;20041;-67
2022/07/13 01:39:03;;;;;;;4.28;3.08;;;23.20;99.90;;;;;;5055015;28;20083;-67
2022/07/13 01:41:30;;;;;;;5.18;2.88;;;23.20;99.90;;;;;;5055703;28;20045;-67
2022/07/13 01:43:57;;;;;;;5.90;2.63;;;23.20;99.90;;;;;;5055051;28;20538;-67
2022/07/13 01:46:25;;;;;;;3.65;2.75;;;23.20;99.90;;;;;;5054889;28;20045;-67
2022/07/13 01:48:53;;;;;;;9.52;4.07;;;23.20;99.90;;;;;;5055829;28;20041;-67
2022/07/13 01:51:20;;;;;;;4.38;2.92;;;23.20;99.90;;;;;;5056609;28;20044;-68
2022/07/13 01:53:47;;;;;;;3.78;2.70;;;23.20;99.90;;;;;;5056249;28;20041;-68
2022/07/13 01:56:14;;;;;;;6.65;3.17;;;23.20;99.90;;;;;;5055629;28;20488;-67
2022/07/13 01:58:41;;;;;;;4.85;2.85;;;23.20;99.90;;;;;;5056425;28;20362;-67
2022/07/13 02:01:08;;;;;;;3.50;2.60;;;23.20;99.90;;;;;;5055164;28;20465;-66
2022/07/13 02:03:35;;;;;;;4.18;2.85;;;23.20;99.90;;;;;;5055144;28;20481;-66
2022/07/13 02:06:02;;;;;;;2.83;2.42;;;23.20;99.90;;;;;;5055235;28;20053;-67
2022/07/13 02:08:29;;;;;;;5.60;2.85;;;23.10;99.90;;;;;;5055405;28;20040;-67
2022/07/13 02:10:55;;;;;;;3.40;2.65;;;23.10;99.90;;;;;;5055413;28;20044;-67
2022/07/13 02:13:22;;;;;;;3.83;2.50;;;23.10;99.90;;;;;;5037803;28;20048;-67
2022/07/13 02:15:50;;;;;;;3.00;2.67;;;23.10;99.90;;;;;;5054966;28;20048;-67
2022/07/13 02:18:17;;;;;;;4.88;2.47;;;23.00;99.90;;;;;;5054155;28;20373;-67
2022/07/13 02:20:44;;;;;;;4.47;2.40;;;23.00;99.90;;;;;;5055362;28;20044;-67
2022/07/13 02:23:11;;;;;;;5.75;2.63;;;23.00;99.90;;;;;;5055394;28;20045;-67
2022/07/13 02:25:37;;;;;;;4.55;2.35;;;23.00;99.90;;;;;;5054379;28;20063;-67
2022/07/13 02:28:06;;;;;;;5.82;2.97;;;23.00;99.90;;;;;;5054311;28;20049;-67
2022/07/13 02:30:33;;;;;;;6.13;2.80;;;22.90;99.90;;;;;;5053861;28;20070;-67
2022/07/13 02:33:01;;;;;;;7.00;2.60;;;22.90;99.90;;;;;;5053665;28;20056;-67
2022/07/13 02:35:28;;;;;;;5.32;2.92;;;22.90;99.90;;;;;;5055638;28;20051;-67
2022/07/13 02:37:54;;;;;;;5.45;3.28;;;22.90;99.90;;;;;;5054938;28;20049;-67
2022/07/13 02:40:21;;;;;;;4.60;3.00;;;22.90;99.90;;;;;;5055766;28;20052;-67
2022/07/13 02:42:48;;;;;;;5.05;3.03;;;22.90;99.90;;;;;;5054080;28;20071;-67
2022/07/13 02:45:15;;;;;;;3.95;2.60;;;22.80;99.90;;;;;;5055119;28;20051;-67
2022/07/13 02:47:42;;;;;;;4.00;2.53;;;22.80;99.90;;;;;;5054165;28;20383;-67
2022/07/13 02:50:09;;;;;;;3.95;2.67;;;22.80;99.90;;;;;;5055067;28;20103;-68
2022/07/13 02:52:36;;;;;;;3.00;2.38;;;22.80;99.90;;;;;;5053954;28;20476;-67
2022/07/13 02:55:03;;;;;;;5.13;2.95;;;22.70;99.90;;;;;;5053876;28;20079;-67
2022/07/13 02:57:30;;;;;;;5.22;2.72;;;22.70;99.90;;;;;;5054615;28;20473;-67
2022/07/13 02:59:58;;;;;;;4.38;2.30;;;22.80;99.90;;;;;;5054455;28;20056;-67
2022/07/13 03:02:25;;;;;;;5.75;2.70;;;22.80;99.90;;;;;;5054514;28;20056;-67
2022/07/13 03:04:52;;;;;;;5.15;2.38;;;22.70;99.90;;;;;;5054669;28;20380;-67
2022/07/13 03:07:18;;;;;;;6.82;2.75;;;22.80;99.90;;;;;;5055411;28;20051;-67
2022/07/13 03:09:45;;;;;;;4.25;2.65;;;22.80;99.90;;;;;;5054878;28;20056;-67
2022/07/13 03:12:12;;;;;;;2.92;2.13;;;22.80;99.90;;;;;;5054374;28;20052;-67
2022/07/13 03:14:39;;;;;;;4.18;2.72;;;22.80;99.90;;;;;;5054301;28;20392;-67
2022/07/13 03:17:06;;;;;;;4.22;2.40;;;22.80;99.90;;;;;;5055016;28;20048;-67
2022/07/13 03:19:33;;;;;;;5.32;2.63;;;22.90;99.90;;;;;;5054799;28;20041;-68
2022/07/13 03:22:03;;;;;;;4.20;2.60;;;22.80;99.90;;;;;;5055162;28;20123;-67
2022/07/13 03:24:31;;;;;;;7.60;2.67;;;22.90;99.90;;;;;;5052810;28;20044;-67
2022/07/13 03:26:57;;;;;;;3.17;2.20;;;22.80;99.90;;;;;;5052827;28;20055;-66
2022/07/13 03:29:24;;;;;;;4.55;2.70;;;22.90;99.90;;;;;;5053285;28;20377;-67
2022/07/13 03:31:51;;;;;;;4.05;2.63;;;22.90;99.90;;;;;;5054940;28;20409;-67
2022/07/13 03:34:18;;;;;;;3.35;2.40;;;22.90;99.90;;;;;;5054172;28;20041;-67
2022/07/13 03:36:45;;;;;;;3.17;2.40;;;22.80;99.90;;;;;;5054219;28;20366;-67
2022/07/13 03:39:12;;;;;;;4.95;3.05;;;22.90;99.90;;;;;;5053829;28;20055;-67
2022/07/13 03:41:39;;;;;;;5.43;2.85;;;22.80;99.90;;;;;;5054767;28;20110;-67
2022/07/13 03:44:06;;;;;;;5.65;3.05;;;22.80;99.90;;;;;;5052461;28;20037;-67
2022/07/13 03:46:33;;;;;;;5.70;2.70;;;22.70;99.90;;;;;;5053859;28;20064;-67
2022/07/13 03:49:00;;;;;;;4.40;2.60;;;22.70;99.90;;;;;;5053769;28;20465;-67
2022/07/13 03:51:27;;;;;;;4.28;2.65;;;22.60;99.90;;;;;;5054715;28;20376;-67
2022/07/13 03:53:54;;;;;;;4.63;2.72;;;22.60;99.90;;;;;;5052374;28;20060;-67
2022/07/13 03:56:21;;;;;;;12.95;3.33;;;22.60;99.90;;;;;;5053861;28;20041;-68
2022/07/13 03:58:47;;;;;;;4.07;2.88;;;22.50;99.90;;;;;;5036160;28;20126;-67
2022/07/13 04:01:14;;;;;;;4.53;2.60;;;22.50;99.90;;;;;;5052580;28;20064;-67
2022/07/13 04:03:41;;;;;;;3.83;2.92;;;22.50;99.90;;;;;;5052639;28;20041;-68
2022/07/13 04:06:08;;;;;;;3.45;2.25;;;22.50;99.90;;;;;;5053347;28;20083;-67
2022/07/13 04:08:35;;;;;;;5.15;2.17;;;22.50;99.90;;;;;;5054404;28;20037;-68
2022/07/13 04:11:02;;;;;;;2.88;2.15;;;22.50;99.90;;;;;;5053594;28;20044;-67
2022/07/13 04:13:29;;;;;;;4.32;2.28;;;22.50;99.90;;;;;;5052186;28;20051;-68
2022/07/13 04:15:56;;;;;;;4.28;2.70;;;22.50;99.90;;;;;;5052359;28;20064;-67
2022/07/13 04:18:23;;;;;;;4.65;3.28;;;22.50;99.90;;;;;;5035588;28;20094;-68
2022/07/13 04:20:50;;;;;;;4.05;3.00;;;22.50;99.90;;;;;;5052256;28;20435;-68
2022/07/13 04:23:17;;;;;;;3.67;2.75;;;22.50;99.90;;;;;;5052107;28;20048;-67
2022/07/13 04:25:44;;;;;;;3.42;2.42;;;22.50;99.90;;;;;;5051923;28;20048;-68
2022/07/13 04:28:11;;;;;;;4.95;3.05;;;22.50;99.90;;;;;;5053098;28;20148;-68
2022/07/13 04:30:38;;;;;;;3.53;2.58;;;22.50;99.90;;;;;;5052991;28;20048;-68
2022/07/13 04:33:05;;;;;;;2.92;2.40;;;22.50;99.90;;;;;;5053788;28;20044;-68
2022/07/13 04:35:32;;;;;;;4.20;2.08;;;22.60;99.90;;;;;;5052957;28;20060;-68
2022/07/13 04:37:59;;;;;;;3.95;2.20;;;22.50;99.90;;;;;;5052256;28;20057;-67
2022/07/13 04:40:26;;;;;;;3.30;2.42;;;22.60;99.90;;;;;;5053233;28;20048;-67
2022/07/13 04:42:53;;;;;;;3.55;2.00;;;22.60;99.90;;;;;;5052855;28;20041;-67
2022/07/13 04:45:20;;;;;;;5.45;2.30;;;22.60;99.90;;;;;;5053369;28;20131;-68
2022/07/13 04:47:48;;;;;;;3.88;2.13;;;22.70;99.90;;;;;;5053658;28;20040;-68
2022/07/13 04:50:15;;;;;;;2.53;1.90;;;22.70;99.90;;;;;;5053023;28;20045;-68
2022/07/13 04:52:42;;;;;;;3.20;1.88;;;22.70;99.90;;;;;;5053167;28;20053;-67
2022/07/13 04:55:09;;;;;;;4.55;2.00;;;22.80;99.90;;;;;;5051630;28;20052;-68
2022/07/13 04:57:36;;;;;;;4.55;1.75;;;22.80;99.90;;;;;;5055011;28;20465;-68
2022/07/13 05:00:06;;;;;;;2.97;1.80;;;22.80;99.90;;;;;;5057130;28;20427;-68
2022/07/13 05:02:33;;;;;;;2.90;1.67;;;22.90;99.90;;;;;;5057814;28;20052;-68
2022/07/13 05:05:00;;;;;;;4.63;1.80;;;22.90;99.90;;;;;;5056689;28;20052;-68
2022/07/13 05:07:28;;;;;;;4.78;2.10;;;22.90;99.90;;;;;;5057055;28;20041;-68
2022/07/13 05:09:56;;;;;;;3.17;1.80;;;22.90;99.90;;;;;;5057513;28;20045;-68
2022/07/13 05:12:23;;;;;;;3.95;1.90;;;22.90;99.90;;;;;;5055647;28;20045;-68
2022/07/13 05:14:50;;;;;;;3.03;1.52;;;23.00;99.90;;;;;;5057379;28;20047;-68
2022/07/13 05:17:17;;;;;;;5.63;2.08;;;23.00;99.90;;;;;;5057042;28;20465;-68
2022/07/13 05:19:44;;;;;;;3.78;2.42;;;23.00;99.90;;;;;;5057622;28;20052;-68
2022/07/13 05:22:10;;;;;;;3.65;1.73;;;23.10;99.90;;;;;;5039090;28;20048;-68
2022/07/13 05:24:43;;;;;;;3.50;1.98;;;23.10;99.90;;;;;;5055435;28;20491;-68
2022/07/13 05:27:11;;;;;;;4.20;1.70;;;23.10;99.90;;;;;;5056394;28;20445;-68
2022/07/13 05:29:38;;;;;;;4.85;1.75;;;23.10;99.90;;;;;;5055323;28;20071;-67
2022/07/13 05:32:06;;;;;;;4.45;2.00;;;23.10;99.90;;;;;;5057028;28;20354;-67
2022/07/13 05:34:33;;;;;;;2.45;1.50;;;23.10;99.30;;;;;;5056991;28;20040;-68
2022/07/13 05:37:00;;;;;;;3.08;1.90;;;23.10;98.80;;;;;;5055859;28;20539;-68
2022/07/13 05:39:27;;;;;;;3.50;1.98;;;23.10;99.00;;;;;;5055771;28;20037;-68
2022/07/13 05:41:53;;;;;;;4.47;2.08;;;23.10;98.70;;;;;;5055965;28;20436;-68
2022/07/13 05:44:21;;;;;;;2.45;1.73;;;23.10;98.70;;;;;;5055063;28;20436;-67
2022/07/13 05:46:48;;;;;;;5.65;2.35;;;23.10;98.50;;;;;;5038405;28;20473;-68
2022/07/13 05:49:18;;;;;;;14.25;10.25;;;23.10;98.70;;;;;;5055212;28;20043;-67
2022/07/13 05:51:46;;;;;;;7.55;4.40;;;23.10;97.80;;;;;;5054724;28;20496;-68
2022/07/13 05:54:13;;;;;;;4.43;2.15;;;23.20;97.80;;;;;;5055835;28;20492;-65
2022/07/13 05:56:59;;;;;;;3.25;1.90;;;23.10;97.60;;;;;;5056026;28;20045;-64
2022/07/13 05:59:26;;;;;;;4.50;1.55;;;23.10;97.50;;;;;;5056827;28;20104;-67
2022/07/13 06:01:53;;;;;;;3.72;1.55;;;23.10;97.60;;;;;;5054660;28;20053;-67
2022/07/13 06:04:20;;;;;;;5.50;2.00;;;23.20;97.50;;;;;;5055591;28;20040;-69
2022/07/13 06:06:47;;;;;;;17.15;8.60;;;23.20;97.10;;;;;;5056520;28;20041;-69
2022/07/13 06:09:14;;;;;;;5.55;3.08;;;23.20;97.20;;;;;;5037296;28;20542;-69
2022/07/13 06:11:41;;;;;;;70.53;63.25;;;23.20;96.80;;;;;;5056617;28;20048;-73
2022/07/13 06:14:09;;;;;;;9.20;6.57;;;23.20;96.90;;;;;;5056509;28;20136;-68
2022/07/13 06:16:36;;;;;;;5.55;3.05;;;23.30;96.70;;;;;;5055013;28;20036;-67
2022/07/13 06:19:06;;;;;;;6.22;2.22;;;23.30;96.50;;;;;;5055417;28;20542;-68
2022/07/13 06:21:33;;;;;;;3.10;1.52;;;23.30;96.30;;;;;;5054976;28;20049;-68
2022/07/13 06:23:59;;;;;;;18.38;3.42;;;23.30;96.10;;;;;;5054122;28;20045;-68
2022/07/13 06:26:26;;;;;;;2.78;1.70;;;23.40;96.40;;;;;;5055308;28;20468;-71
2022/07/13 06:28:54;;;;;;;4.68;1.63;;;23.40;96.00;;;;;;5055602;28;20053;-67
2022/07/13 06:31:22;;;;;;;;;;;23.40;95.80;;;;;;5055907;28;20083;-64
2022/07/13 06:33:51;;;;;;;3.05;1.70;;;23.40;95.50;;;;;;5055006;28;20426;-68
2022/07/13 06:36:18;;;;;;;2.78;1.50;;;23.40;96.00;;;;;;5054248;28;20384;-66
2022/07/13 06:38:45;;;;;;;2.35;1.75;;;23.40;96.10;;;;;;5054251;28;20045;-65
2022/07/13 06:41:12;;;;;;;2.65;1.85;;;23.40;96.10;;;;;;5056294;28;20051;-66
2022/07/13 06:43:39;;;;;;;2.50;1.60;;;23.40;96.20;;;;;;5055263;28;20427;-66
2022/07/13 06:46:07;;;;;;;4.53;1.40;;;23.50;96.00;;;;;;5055716;28;20060;-64
2022/07/13 06:48:35;;;;;;;4.80;1.83;;;23.50;95.90;;;;;;5055153;28;20075;-64
2022/07/13 06:51:03;;;;;;;4.95;2.75;;;23.60;95.90;;;;;;5054990;28;20464;-65
2022/07/13 06:53:30;;;;;;;2.72;1.88;;;23.70;96.10;;;;;;5053858;28;20044;-65
2022/07/13 06:55:57;;;;;;;5.30;2.00;;;23.80;96.00;;;;;;5055487;28;20049;-65
2022/07/13 06:58:24;;;;;;;3.75;1.63;;;24.00;95.70;;;;;;5053704;28;20051;-65
2022/07/13 07:00:51;;;;;;;4.53;1.60;;;24.10;95.50;;;;;;5054893;28;20435;-66
2022/07/13 07:03:18;;;;;;;3.80;1.83;;;24.20;95.60;;;;;;5054567;28;20369;-66
2022/07/13 07:05:45;;;;;;;3.97;2.00;;;24.40;95.40;;;;;;5054519;28;20124;-65
2022/07/13 07:08:13;;;;;;;2.83;1.52;;;24.50;94.50;;;;;;5054984;28;20051;-65
2022/07/13 07:10:40;;;;;;;4.38;1.73;;;24.50;94.10;;;;;;5054311;28;20041;-65
2022/07/13 07:13:07;;;;;;;3.35;1.73;;;24.60;94.40;;;;;;5054636;28;20041;-65
2022/07/13 07:15:34;;;;;;;4.22;2.38;;;24.60;94.40;;;;;;5055134;28;20041;-63
2022/07/13 07:18:01;;;;;;;4.10;2.10;;;24.60;94.20;;;;;;5054476;28;20411;-63
2022/07/13 07:20:34;;;;;;;5.13;1.70;;;24.60;93.90;;;;;;5052564;28;20052;-63
2022/07/13 07:23:01;;;;;;;2.90;1.60;;;24.60;94.10;;;;;;5036393;28;20045;-64
2022/07/13 07:25:28;;;;;;;3.58;1.63;;;24.50;94.00;;;;;;5055154;28;20373;-65
2022/07/13 07:27:55;;;;;;;4.18;2.20;;;24.60;93.80;;;;;;5052900;28;20131;-63
2022/07/13 07:30:22;;;;;;;3.53;2.10;;;24.50;93.60;;;;;;5054297;28;20041;-63
2022/07/13 07:32:49;;;;;;;4.07;1.95;;;24.40;93.70;;;;;;5055044;28;20456;-64
2022/07/13 07:35:16;;;;;;;24.42;20.52;;;24.30;94.00;;;;;;5052692;28;20055;-70
2022/07/13 07:37:44;;;;;;;6.25;4.53;;;24.10;94.30;;;;;;5053476;28;20053;-72
2022/07/13 07:40:11;;;;;;;5.47;2.63;;;24.10;94.60;;;;;;5054145;28;20099;-67
2022/07/13 07:42:39;;;;;;;5.63;2.88;;;24.10;95.00;;;;;;5054083;28;20049;-64
2022/07/13 07:45:08;;;;;;;4.95;2.30;;;24.20;94.70;;;;;;5053755;28;20044;-63
2022/07/13 07:47:35;;;;;;;4.78;2.10;;;24.30;94.40;;;;;;5053441;28;20047;-63
2022/07/13 07:50:03;;;;;;;3.58;1.90;;;24.30;94.20;;;;;;5053840;28;20055;-64
2022/07/13 07:52:30;;;;;;;3.72;1.67;;;24.20;94.50;;;;;;5053650;28;20044;-64
2022/07/13 07:55:17;;;;;;;6.82;2.15;;;24.20;94.50;;;;;;5052456;28;20041;-64
2022/07/13 07:57:47;;;;;;;7.13;2.15;;;24.20;94.60;;;;;;5054343;28;20068;-65
2022/07/13 08:00:14;;;;;;;4.38;1.95;;;24.20;94.30;;;;;;5036056;28;20055;-67
2022/07/13 08:02:41;;;;;;;6.55;2.65;;;24.30;94.40;;;;;;5052236;28;20045;-67
2022/07/13 08:05:09;;;;;;;6.82;1.95;;;24.40;94.40;;;;;;5053716;28;20448;-70
2022/07/13 08:07:42;;;;;;;5.03;2.00;;;24.30;94.10;;;;;;5052283;28;20055;-67
2022/07/13 08:10:13;;;;;;;6.10;2.08;;;24.40;94.20;;;;;;5053321;28;20041;-70
2022/07/13 08:13:00;;;;;;;2.72;1.70;;;24.60;94.30;;;;;;5054251;28;20072;-64
2022/07/13 08:15:27;;;;;;;5.72;2.67;;;24.60;93.40;;;;;;5053327;28;20068;-65
2022/07/13 08:17:55;;;;;;;3.83;1.80;;;24.40;93.50;;;;;;5053291;28;20056;-64
2022/07/13 08:20:22;;;;;;;5.90;2.28;;;24.60;93.60;;;;;;5053564;28;20128;-65
2022/07/13 08:22:50;;;;;;;16.98;14.82;;;24.70;93.30;;;;;;5053692;28;20056;-76
2022/07/13 08:25:17;;;;;;;12.67;11.43;;;24.80;92.80;;;;;;5069924;28;20068;-64
2022/07/13 08:27:44;;;;;;;9.70;4.03;;;24.90;92.90;;;;;;5053355;28;20052;-65
2022/07/13 08:30:11;;;;;;;4.82;2.20;;;24.90;92.40;;;;;;5053638;28;20045;-68
2022/07/13 08:32:39;;;;;;;3.03;2.30;;;25.00;92.40;;;;;;5053004;28;20469;-69
2022/07/13 08:40:41;;;;;;;4.20;2.00;;;25.20;92.00;;;;;;5053283;28;20464;-69
2022/07/13 08:43:08;;;;;;;4.53;2.10;;;25.40;91.70;;;;;;5051955;28;20052;-70
2022/07/13 08:45:35;;;;;;;4.68;2.20;;;25.60;91.20;;;;;;5054735;28;20052;-70
2022/07/13 08:48:06;;;;;;;4.38;2.40;;;25.70;90.90;;;;;;5058265;28;20051;-69
2022/07/13 08:50:33;;;;;;;4.32;2.05;;;25.80;91.00;;;;;;5059129;28;20047;-68
2022/07/13 08:53:00;;;;;;;4.25;2.00;;;25.90;90.70;;;;;;5062679;28;20053;-69
2022/07/13 08:55:26;;;;;;;4.95;2.40;;;26.00;90.10;;;;;;5050872;28;20045;-70
2022/07/13 08:57:53;;;;;;;4.32;1.90;;;26.10;89.30;;;;;;5067284;28;20037;-70
2022/07/13 09:00:22;;;;;;;5.15;2.13;;;26.10;88.60;;;;;;5065870;28;20056;-69
2022/07/13 09:02:49;;;;;;;3.80;2.08;;;26.10;88.60;;;;;;5049819;28;20048;-69
2022/07/13 09:05:18;;;;;;;3.37;1.73;;;26.20;88.60;;;;;;5067217;28;20108;-69
2022/07/13 09:08:00;;;;;;;;;;;26.40;88.20;;;;;;5049748;28;20092;-69
2022/07/13 09:10:26;;;;;;;4.82;3.15;;;26.40;86.20;;;;;;5063519;28;19916;-70
2022/07/13 09:12:53;;;;;;;4.25;1.90;;;26.40;86.40;;;;;;5052620;28;20041;-69
2022/07/13 09:15:28;;;;;;;6.05;2.38;;;26.40;86.20;;;;;;5053097;28;20158;-69
2022/07/13 09:17:55;;;;;;;3.63;1.95;;;26.50;86.10;;;;;;5053189;28;20057;-69
2022/07/13 09:20:22;;;;;;;6.07;1.98;;;26.60;85.50;;;;;;5053095;28;20060;-70
2022/07/13 09:23:01;;;;;;;3.97;2.03;;;26.70;85.40;;;;;;5052246;28;20063;-69
2022/07/13 09:25:37;;;;;;;4.82;2.50;;;26.70;84.40;;;;;;5051692;28;20045;-70
2022/07/13 09:28:08;;;;;;;5.55;1.98;;;26.70;83.90;;;;;;5053050;28;20366;-70
2022/07/13 09:30:37;;;;;;;2.88;1.90;;;26.70;84.00;;;;;;5053118;28;20045;-70
2022/07/13 09:33:04;;;;;;;3.53;2.00;;;26.80;86.20;;;;;;5052955;28;20037;-68
2022/07/13 09:35:45;;;;;;;4.88;2.35;;;26.80;84.50;;;;;;5053874;28;20045;-70
2022/07/13 09:38:36;;;;;;;6.60;2.30;;;26.80;83.00;;;;;;5051921;28;20055;-70
2022/07/13 09:41:21;;;;;;;3.70;1.95;;;26.80;83.50;;;;;;5052598;28;20076;-69
2022/07/13 09:47:05;;;;;;;3.70;2.40;;;27.00;82.90;;;;;;5055293;28;20052;-70
2022/07/13 09:49:44;;;;;;;5.15;2.13;;;27.00;83.70;;;;;;5056999;28;20067;-71
2022/07/13 09:52:12;;;;;;;8.07;2.20;;;27.00;82.00;;;;;;5056579;28;20045;-71
2022/07/13 09:54:44;;;;;;;3.77;2.00;;;27.10;83.20;;;;;;5055114;28;20045;-71
2022/07/13 09:57:13;;;;;;;2.97;2.05;;;27.10;81.40;;;;;;5039261;28;20040;-71
2022/07/13 09:59:41;;;;;;;5.68;2.60;;;27.10;81.10;;;;;;5054737;28;20059;-71
2022/07/13 10:02:08;;;;;;;4.13;2.40;;;26.80;81.20;;;;;;5055801;28;20372;-71
2022/07/13 10:04:36;;;;;;;3.72;2.05;;;26.70;81.20;;;;;;5056018;28;20388;-71
2022/07/13 10:07:15;;;;;;;5.15;2.60;;;26.80;82.00;;;;;;5054760;28;20133;-71
2022/07/13 10:09:42;;;;;;;3.92;2.05;;;26.90;82.00;;;;;;5054483;28;20124;-71
2022/07/13 10:12:10;;;;;;;3.20;2.70;;;27.00;80.90;;;;;;5056086;28;20049;-71
2022/07/13 10:14:37;;;;;;;3.30;2.05;;;27.00;80.80;;;;;;5054790;28;20064;-71
2022/07/13 10:17:12;;;;;;;7.38;2.38;;;27.00;81.70;;;;;;5054270;28;20123;-71
2022/07/13 10:19:44;;;;;;;5.07;2.50;;;27.10;79.80;;;;;;5037859;28;20119;-71
2022/07/13 10:22:20;;;;;;;6.82;2.95;;;27.10;79.40;;;;;;5054434;28;20044;-71
2022/07/13 10:24:55;;;;;;;4.32;2.65;;;26.90;80.90;;;;;;5056224;28;20041;-71
2022/07/13 10:27:26;;;;;;;3.65;2.47;;;27.00;80.20;;;;;;5055265;28;20049;-71
2022/07/13 10:29:57;;;;;;;5.53;2.97;;;26.90;80.00;;;;;;5055213;28;20119;-71
2022/07/13 10:32:30;;;;;;;7.45;2.85;;;26.80;80.10;;;;;;5054934;28;20040;-71
2022/07/13 10:35:05;;;;;;;4.40;2.40;;;26.70;80.10;;;;;;5054064;28;20061;-71
2022/07/13 10:37:56;;;;;;;5.47;2.83;;;26.60;81.00;;;;;;5054532;28;20075;-71
2022/07/13 10:40:31;;;;;;;4.00;3.13;;;26.70;80.10;;;;;;5055071;28;20503;-71
2022/07/13 10:43:03;;;;;;;9.73;3.15;;;26.70;80.50;;;;;;5053845;28;20124;-71
2022/07/13 10:45:34;;;;;;;4.03;2.45;;;26.70;80.60;;;;;;5054916;28;20163;-71
2022/07/13 10:48:03;;;;;;;7.00;3.00;;;26.90;80.40;;;;;;5054834;28;20041;-71
2022/07/13 10:50:36;;;;;;;3.60;2.33;;;26.90;79.60;;;;;;5053586;28;20040;-70
2022/07/13 10:53:07;;;;;;;5.93;2.88;;;27.00;79.90;;;;;;5039713;28;20041;-68
2022/07/13 10:55:47;;;;;;;5.10;2.40;;;27.20;81.00;;;;;;5054222;28;20048;-70
2022/07/13 10:58:30;;;;;;;4.38;2.10;;;27.50;79.30;;;;;;5054791;28;20139;-72
2022/07/13 11:01:01;;;;;;;72.28;65.00;;;27.90;78.40;;;;;;5054888;28;20044;-72
2022/07/13 11:03:37;;;;;;;11.80;10.60;;;28.10;75.40;;;;;;5053984;28;20044;-69
2022/07/13 11:06:08;;;;;;;6.40;3.72;;;28.00;77.90;;;;;;5054807;28;20072;-68
2022/07/13 11:08:35;;;;;;;4.22;2.50;;;28.10;75.60;;;;;;5055468;28;20102;-68
2022/07/13 11:11:13;;;;;;;4.53;2.47;;;28.10;76.40;;;;;;5053433;28;20041;-67
2022/07/13 11:13:40;;;;;;;6.50;2.28;;;28.20;73.70;;;;;;5054666;28;20041;-68
2022/07/13 11:16:10;;;;;;;6.22;2.17;;;28.20;74.50;;;;;;5053401;28;20052;-67
2022/07/13 11:18:37;;;;;;;4.35;2.25;;;28.30;74.00;;;;;;5054225;28;20094;-66
2022/07/13 11:21:04;;;;;;;2.90;2.10;;;28.30;75.00;;;;;;5053001;28;20546;-66
2022/07/13 11:26:52;;;;;;;4.18;2.10;;;28.40;75.20;;;;;;5054504;28;20052;-68
2022/07/13 11:29:27;;;;;;;4.05;2.28;;;28.60;73.60;;;;;;5055005;28;20091;-67
2022/07/13 11:32:00;;;;;;;4.32;2.00;;;28.80;75.30;;;;;;5053102;28;20052;-66
2022/07/13 11:34:28;;;;;;;4.85;1.90;;;29.00;72.50;;;;;;5054008;28;20123;-66
2022/07/13 11:36:55;;;;;;;5.65;2.55;;;29.10;72.90;;;;;;5053749;28;20044;-67
2022/07/13 11:39:32;;;;;;;5.03;2.25;;;29.00;72.80;;;;;;5054288;28;20400;-66
2022/07/13 11:42:00;;;;;;;2.25;1.90;;;29.00;73.60;;;;;;5037228;28;20052;-66
2022/07/13 11:44:30;;;;;;;6.45;2.55;;;29.20;73.90;;;;;;5053893;28;20041;-66
2022/07/13 11:46:58;;;;;;;4.55;2.33;;;29.10;72.30;;;;;;5053060;28;20044;-65
2022/07/13 11:49:27;;;;;;;4.15;2.30;;;29.10;73.00;;;;;;5053251;28;20045;-70
2022/07/13 11:51:54;;;;;;;22.17;19.92;;;29.10;73.00;;;;;;5053270;28;20114;-71
2022/07/13 11:54:21;;;;;;;5.05;3.80;;;29.10;71.90;;;;;;5054038;28;20051;-66
2022/07/13 11:56:56;;;;;;;3.78;2.60;;;29.10;71.60;;;;;;5053317;28;20359;-67
2022/07/13 11:59:39;;;;;;;5.10;2.33;;;29.10;71.70;;;;;;5054556;28;20056;-66
2022/07/13 12:02:10;;;;;;;3.15;2.40;;;29.20;71.70;;;;;;5052265;28;20149;-66
2022/07/13 12:04:43;;;;;;;4.25;2.40;;;29.10;72.30;;;;;;5036058;28;20048;-66
2022/07/13 12:07:13;;;;;;;4.85;2.33;;;28.90;71.70;;;;;;5052587;28;20060;-66
2022/07/13 12:09:46;;;;;;;4.25;2.63;;;28.90;71.60;;;;;;5052902;28;20415;-66
2022/07/13 12:12:14;;;;;;;5.28;2.20;;;29.00;71.50;;;;;;5054145;28;20075;-66
2022/07/13 12:14:41;;;;;;;3.92;2.67;;;28.90;71.70;;;;;;5052630;28;20049;-68
2022/07/13 12:17:08;;;;;;;6.22;2.83;;;28.80;72.30;;;;;;5052859;28;20131;-67
2022/07/13 12:19:38;;;;;;;4.85;2.42;;;28.90;71.60;;;;;;5054332;28;20051;-67
2022/07/13 12:22:07;;;;;;;3.65;2.78;;;28.80;71.00;;;;;;5052248;28;20538;-67
2022/07/13 12:24:34;;;;;;;8.40;2.80;;;28.80;70.40;;;;;;5052294;28;20048;-66
2022/07/13 12:27:01;;;;;;;3.60;2.22;;;28.80;71.20;;;;;;5053123;28;20095;-66
2022/07/13 12:29:32;;;;;;;4.93;2.20;;;29.00;70.70;;;;;;5053121;28;20044;-67
2022/07/13 12:32:00;;;;;;;3.85;3.10;;;29.10;70.80;;;;;;5035738;28;20403;-67
2022/07/13 12:34:27;;;;;;;4.03;2.23;;;29.30;70.70;;;;;;5035848;28;20453;-66
2022/07/13 12:36:54;;;;;;;4.55;2.33;;;29.60;71.00;;;;;;5053305;28;20155;-66
2022/07/13 12:39:36;;;;;;;3.10;2.38;;;29.60;70.00;;;;;;5053344;28;20503;-67
2022/07/13 12:42:03;;;;;;;3.22;2.50;;;29.80;69.60;;;;;;5053033;28;20045;-67
2022/07/13 12:44:30;;;;;;;3.63;2.33;;;29.80;70.00;;;;;;5052448;28;20059;-67
2022/07/13 12:46:59;;;;;;;4.22;2.50;;;29.90;69.50;;;;;;5051983;28;20056;-68
2022/07/13 12:49:36;;;;;;;4.95;2.58;;;30.10;68.90;;;;;;5051782;28;20041;-67
2022/07/13 12:52:11;;;;;;;4.53;2.20;;;30.10;68.20;;;;;;5052381;28;20404;-70
2022/07/13 12:54:44;;;;;;;51.63;46.55;;;30.10;68.90;;;;;;5052702;28;20045;-71
2022/07/13 12:57:13;;;;;;;8.75;7.60;;;30.00;68.00;;;;;;5035555;28;20488;-66
2022/07/13 12:59:41;;;;;;;5.65;3.75;;;30.20;68.40;;;;;;5053339;28;20049;-65
2022/07/13 13:02:08;;;;;;;4.22;2.75;;;30.50;68.90;;;;;;5052800;28;20530;-65
2022/07/13 13:04:35;;;;;;;4.03;2.60;;;30.60;69.20;;;;;;5051913;28;20432;-62